sensor_id;sensor_type;location;lat;lon;timestamp;pressure;altitude;pressure_sealevel;temperature;humidity
9235;BME280;4652;42.716;23.218;2023-03-01T03:38:36;95269.19;;;5.34;100.00
9235;BME280;4652;42.716;23.218;2023-03-01T03:45:19;95278.22;;;5.50;100.00
9235;BME280;4652;42.716;23.218;2023-03-01T03:52:01;95268.38;;;5.33;100.00
9235;BME280;4652;42.716;23.218;2023-03-01T03:58:44;95274.53;;;5.34;100.00
9235;BME280;4652;42.716;23.218;2023-03-01T04:05:27;95255.78;;;5.12;100.00
9235;BME280;4652;42.716;23.218;2023-03-01T04:12:09;95273.09;;;5.26;100.00
9235;BME280;4652;42.716;23.218;2023-03-01T04:18:52;95265.66;;;5.12;100.00
9235;BME280;4652;42.716;23.218;2023-03-01T04:25:36;95279.97;;;4.89;100.00
9235;BME280;4652;42.716;23.218;2023-03-01T04:32:18;95272.13;;;4.66;100.00
9235;BME280;4652;42.716;23.218;2023-03-01T04:39:01;95279.38;;;4.54;100.00
9235;BME280;4652;42.716;23.218;2023-03-01T04:45:52;95259.09;;;4.53;100.00
9235;BME280;4652;42.716;23.218;2023-03-01T04:52:34;95259.50;;;4.61;100.00
9235;BME280;4652;42.716;23.218;2023-03-01T04:59:17;95278.13;;;4.45;100.00
9235;BME280;4652;42.716;23.218;2023-03-01T05:06:03;95269.09;;;4.46;100.00
9235;BME280;4652;42.716;23.218;2023-03-01T05:12:45;95282.91;;;4.43;100.00
9235;BME280;4652;42.716;23.218;2023-03-01T05:19:29;95288.16;;;4.38;100.00
9235;BME280;4652;42.716;23.218;2023-03-01T05:26:12;95295.34;;;4.37;100.00
9235;BME280;4652;42.716;23.218;2023-03-01T05:32:54;95297.66;;;4.34;100.00
9235;BME280;4652;42.716;23.218;2023-03-01T05:39:37;95303.09;;;4.39;100.00
9235;BME280;4652;42.716;23.218;2023-03-01T05:46:19;95299.97;;;4.42;100.00
9235;BME280;4652;42.716;23.218;2023-03-01T05:53:03;95316.22;;;4.57;100.00
9235;BME280;4652;42.716;23.218;2023-03-01T05:59:47;95323.03;;;4.64;100.00
9235;BME280;4652;42.716;23.218;2023-03-01T06:06:29;95310.59;;;4.70;100.00
9235;BME280;4652;42.716;23.218;2023-03-01T06:13:11;95317.50;;;4.99;100.00
9235;BME280;4652;42.716;23.218;2023-03-01T06:19:55;95302.78;;;4.97;100.00
9235;BME280;4652;42.716;23.218;2023-03-01T06:26:37;95313.38;;;5.08;100.00
9235;BME280;4652;42.716;23.218;2023-03-01T06:33:19;95335.88;;;5.12;100.00
9235;BME280;4652;42.716;23.218;2023-03-01T06:40:06;95322.44;;;5.07;100.00
9235;BME280;4652;42.716;23.218;2023-03-01T06:46:49;95321.97;;;5.10;100.00
9235;BME280;4652;42.716;23.218;2023-03-01T06:53:31;95329.22;;;5.15;100.00
9235;BME280;4652;42.716;23.218;2023-03-01T07:00:16;95325.59;;;5.21;100.00
9235;BME280;4652;42.716;23.218;2023-03-01T07:06:58;95307.31;;;5.29;100.00
9235;BME280;4652;42.716;23.218;2023-03-01T07:13:40;95312.88;;;5.45;100.00
9235;BME280;4652;42.716;23.218;2023-03-01T07:20:24;95297.44;;;5.47;100.00
9235;BME280;4652;42.716;23.218;2023-03-01T07:27:06;95304.84;;;5.83;100.00
9235;BME280;4652;42.716;23.218;2023-03-01T07:33:48;95281.41;;;5.85;100.00
9235;BME280;4652;42.716;23.218;2023-03-01T07:40:31;95269.22;;;5.77;100.00
9235;BME280;4652;42.716;23.218;2023-03-01T07:47:14;95313.84;;;6.15;100.00
9235;BME280;4652;42.716;23.218;2023-03-01T07:53:56;95288.53;;;6.23;100.00
9235;BME280;4652;42.716;23.218;2023-03-01T20:08:05;95166.34;;;5.97;100.00
9235;BME280;4652;42.716;23.218;2023-03-01T20:14:48;95179.53;;;5.81;100.00
9235;BME280;4652;42.716;23.218;2023-03-01T20:21:34;95178.66;;;5.76;100.00
9235;BME280;4652;42.716;23.218;2023-03-01T20:28:18;95184.38;;;5.84;100.00
9235;BME280;4652;42.716;23.218;2023-03-01T20:35:00;95176.47;;;5.73;100.00
9235;BME280;4652;42.716;23.218;2023-03-01T20:41:42;95179.69;;;5.75;100.00
9235;BME280;4652;42.716;23.218;2023-03-01T20:48:25;95188.03;;;5.78;100.00
9235;BME280;4652;42.716;23.218;2023-03-01T20:55:09;95180.56;;;5.80;100.00
9235;BME280;4652;42.716;23.218;2023-03-01T21:01:51;95192.00;;;5.76;100.00
9235;BME280;4652;42.716;23.218;2023-03-01T21:08:34;95195.13;;;5.68;100.00
9235;BME280;4652;42.716;23.218;2023-03-01T21:15:16;95176.66;;;5.45;100.00
9235;BME280;4652;42.716;23.218;2023-03-01T21:21:58;95191.75;;;5.56;100.00
9235;BME280;4652;42.716;23.218;2023-03-01T21:28:42;95183.19;;;5.54;100.00
9235;BME280;4652;42.716;23.218;2023-03-01T21:35:24;95185.50;;;5.45;100.00
9235;BME280;4652;42.716;23.218;2023-03-01T21:42:06;95196.94;;;5.62;100.00
9235;BME280;4652;42.716;23.218;2023-03-01T21:48:51;95200.34;;;5.58;100.00
9235;BME280;4652;42.716;23.218;2023-03-01T21:55:33;95189.72;;;5.63;100.00
9235;BME280;4652;42.716;23.218;2023-03-01T22:02:15;95194.50;;;5.61;100.00
9235;BME280;4652;42.716;23.218;2023-03-01T22:09:02;95179.09;;;5.46;100.00
9235;BME280;4652;42.716;23.218;2023-03-01T22:15:45;95185.09;;;5.58;100.00
9235;BME280;4652;42.716;23.218;2023-03-01T22:22:27;95193.72;;;5.60;100.00
9235;BME280;4652;42.716;23.218;2023-03-01T22:29:12;95190.72;;;5.57;100.00
9235;BME280;4652;42.716;23.218;2023-03-01T22:35:55;95191.59;;;5.62;100.00
9235;BME280;4652;42.716;23.218;2023-03-01T22:42:37;95184.66;;;5.66;100.00
9235;BME280;4652;42.716;23.218;2023-03-01T22:49:20;95181.56;;;5.74;100.00
9235;BME280;4652;42.716;23.218;2023-03-01T22:56:11;95185.22;;;5.85;100.00
9235;BME280;4652;42.716;23.218;2023-03-01T23:02:53;95173.16;;;6.09;100.00
9235;BME280;4652;42.716;23.218;2023-03-01T23:09:36;95169.75;;;6.19;100.00
9235;BME280;4652;42.716;23.218;2023-03-01T23:16:19;95167.16;;;5.97;100.00
9235;BME280;4652;42.716;23.218;2023-03-01T23:23:05;95175.63;;;5.89;100.00
9235;BME280;4652;42.716;23.218;2023-03-01T23:29:51;95155.19;;;5.83;100.00
9235;BME280;4652;42.716;23.218;2023-03-01T23:36:33;95154.34;;;5.77;100.00
9235;BME280;4652;42.716;23.218;2023-03-01T23:43:15;95173.84;;;5.78;100.00
9235;BME280;4652;42.716;23.218;2023-03-01T23:50:00;95169.19;;;5.85;100.00
9235;BME280;4652;42.716;23.218;2023-03-01T23:56:44;95163.97;;;6.00;100.00
